Current Conditions
Partly Cloudy
Conditions



Pressure
1010.92 (hPa) - 29.85 (inHG)
Visibility

6.2 (miles) - 10.0 (km)
Temperature
17  °C
Temperature
13  °C
Dewpoint
77  %
 Humidity
Wind Speed
3  mph
3  kts
5  km/h
1.3  m/s
Wind Direction
N
45°
E
90°
135°
S
180°
225°
W
270°
315°
Calm

Due North
Airport Data
EGHI
Southampton Airport
Metar :EGHI 312020Z VRB03KT 9999 FEW042 17/13 Q1011
Sat 31st July 20:20 pm
Raw Metar Info
Raw METAR is the most common format in the world for the transmission of observational weather data. It is highly standardized through the International Civil Aviation Organization (ICAO), which allows it to be understood throughout most of the world.
API Info
Data Provided by
https://www.checkwx.com/weather/EGHI

Aviation Weather providing METAR, TAF, AIRMET, SIGMET and OUTLOOK Weather Reports
© Info
CSS/SVG/PHP scripts were developed by weather34.com for use in the weather34 template © 2015-2021

Guide Info provided by Metar-Wikipedia